sensor_id;sensor_type;location;lat;lon;timestamp;P1;durP1;ratioP1;P2;durP2;ratioP2
80320;SDS011;69633;47.066;15.450;2023-06-26T00:00:01;12.35;;;7.50;;
80320;SDS011;69633;47.066;15.450;2023-06-26T00:02:30;11.93;;;6.65;;
80320;SDS011;69633;47.066;15.450;2023-06-26T00:05:00;13.95;;;7.38;;
80320;SDS011;69633;47.066;15.450;2023-06-26T00:07:29;11.35;;;7.22;;
80320;SDS011;69633;47.066;15.450;2023-06-26T00:09:57;14.27;;;7.47;;
80320;SDS011;69633;47.066;15.450;2023-06-26T00:12:23;11.55;;;7.38;;
80320;SDS011;69633;47.066;15.450;2023-06-26T00:14:50;12.70;;;7.00;;
80320;SDS011;69633;47.066;15.450;2023-06-26T00:17:17;13.25;;;7.43;;
80320;SDS011;69633;47.066;15.450;2023-06-26T00:19:43;15.48;;;8.65;;
80320;SDS011;69633;47.066;15.450;2023-06-26T00:22:10;11.98;;;7.35;;
80320;SDS011;69633;47.066;15.450;2023-06-26T00:24:38;13.60;;;7.38;;
80320;SDS011;69633;47.066;15.450;2023-06-26T00:27:04;14.15;;;8.05;;
80320;SDS011;69633;47.066;15.450;2023-06-26T00:29:30;13.65;;;8.02;;
80320;SDS011;69633;47.066;15.450;2023-06-26T00:31:57;13.60;;;7.72;;
80320;SDS011;69633;47.066;15.450;2023-06-26T00:34:23;12.85;;;7.80;;
80320;SDS011;69633;47.066;15.450;2023-06-26T00:36:50;13.63;;;8.15;;
80320;SDS011;69633;47.066;15.450;2023-06-26T00:39:15;18.27;;;8.52;;
80320;SDS011;69633;47.066;15.450;2023-06-26T00:41:42;13.10;;;8.07;;
80320;SDS011;69633;47.066;15.450;2023-06-26T00:44:08;15.00;;;7.93;;
80320;SDS011;69633;47.066;15.450;2023-06-26T00:46:34;13.15;;;7.68;;
80320;SDS011;69633;47.066;15.450;2023-06-26T00:49:02;12.95;;;7.97;;
80320;SDS011;69633;47.066;15.450;2023-06-26T00:51:30;14.00;;;7.80;;
80320;SDS011;69633;47.066;15.450;2023-06-26T00:53:57;11.65;;;7.28;;
80320;SDS011;69633;47.066;15.450;2023-06-26T00:56:24;12.48;;;7.68;;
80320;SDS011;69633;47.066;15.450;2023-06-26T00:58:51;12.50;;;7.32;;
80320;SDS011;69633;47.066;15.450;2023-06-26T01:01:16;14.60;;;7.30;;
80320;SDS011;69633;47.066;15.450;2023-06-26T01:03:43;13.80;;;7.45;;
80320;SDS011;69633;47.066;15.450;2023-06-26T01:06:12;12.45;;;7.38;;
80320;SDS011;69633;47.066;15.450;2023-06-26T01:08:41;13.90;;;7.38;;
80320;SDS011;69633;47.066;15.450;2023-06-26T01:11:09;14.43;;;7.63;;
80320;SDS011;69633;47.066;15.450;2023-06-26T01:13:36;16.13;;;7.07;;
80320;SDS011;69633;47.066;15.450;2023-06-26T01:16:05;13.23;;;7.80;;
80320;SDS011;69633;47.066;15.450;2023-06-26T01:18:37;13.90;;;7.97;;
80320;SDS011;69633;47.066;15.450;2023-06-26T01:21:12;13.98;;;7.85;;
80320;SDS011;69633;47.066;15.450;2023-06-26T01:26:26;14.88;;;8.05;;
80320;SDS011;69633;47.066;15.450;2023-06-26T01:31:22;16.80;;;8.20;;
80320;SDS011;69633;47.066;15.450;2023-06-26T01:33:50;14.93;;;7.45;;
80320;SDS011;69633;47.066;15.450;2023-06-26T01:36:16;12.82;;;7.95;;
80320;SDS011;69633;47.066;15.450;2023-06-26T01:38:43;12.98;;;8.18;;
80320;SDS011;69633;47.066;15.450;2023-06-26T01:41:09;13.45;;;7.72;;
80320;SDS011;69633;47.066;15.450;2023-06-26T01:52:58;15.20;;;7.57;;
80320;SDS011;69633;47.066;15.450;2023-06-26T01:58:22;13.77;;;8.15;;
80320;SDS011;69633;47.066;15.450;2023-06-26T02:03:19;17.02;;;8.13;;
80320;SDS011;69633;47.066;15.450;2023-06-26T02:05:46;15.88;;;8.15;;
80320;SDS011;69633;47.066;15.450;2023-06-26T02:08:14;21.70;;;8.43;;
80320;SDS011;69633;47.066;15.450;2023-06-26T02:10:41;14.27;;;7.47;;
80320;SDS011;69633;47.066;15.450;2023-06-26T02:13:08;14.73;;;8.40;;
80320;SDS011;69633;47.066;15.450;2023-06-26T02:15:35;16.73;;;8.85;;
80320;SDS011;69633;47.066;15.450;2023-06-26T02:18:02;15.35;;;8.45;;
80320;SDS011;69633;47.066;15.450;2023-06-26T02:20:28;15.18;;;8.13;;
80320;SDS011;69633;47.066;15.450;2023-06-26T02:22:54;14.90;;;8.18;;
80320;SDS011;69633;47.066;15.450;2023-06-26T02:25:21;15.93;;;8.98;;
80320;SDS011;69633;47.066;15.450;2023-06-26T02:27:47;14.40;;;8.13;;
80320;SDS011;69633;47.066;15.450;2023-06-26T02:30:14;17.13;;;8.80;;
80320;SDS011;69633;47.066;15.450;2023-06-26T02:32:40;13.50;;;7.90;;
80320;SDS011;69633;47.066;15.450;2023-06-26T02:35:07;16.83;;;9.07;;
80320;SDS011;69633;47.066;15.450;2023-06-26T02:37:34;13.23;;;8.07;;
80320;SDS011;69633;47.066;15.450;2023-06-26T02:40:00;14.52;;;7.45;;
80320;SDS011;69633;47.066;15.450;2023-06-26T02:42:26;14.13;;;8.02;;
80320;SDS011;69633;47.066;15.450;2023-06-26T02:44:53;14.88;;;8.65;;
80320;SDS011;69633;47.066;15.450;2023-06-26T02:47:19;14.23;;;8.35;;
80320;SDS011;69633;47.066;15.450;2023-06-26T02:49:46;14.25;;;7.63;;
80320;SDS011;69633;47.066;15.450;2023-06-26T02:52:13;18.77;;;9.20;;
80320;SDS011;69633;47.066;15.450;2023-06-26T02:54:38;14.32;;;9.18;;
80320;SDS011;69633;47.066;15.450;2023-06-26T02:57:04;13.20;;;7.75;;
80320;SDS011;69633;47.066;15.450;2023-06-26T02:59:32;15.02;;;8.77;;
80320;SDS011;69633;47.066;15.450;2023-06-26T03:01:59;14.07;;;7.85;;
80320;SDS011;69633;47.066;15.450;2023-06-26T03:04:28;13.43;;;7.82;;
80320;SDS011;69633;47.066;15.450;2023-06-26T03:06:54;14.25;;;8.77;;
80320;SDS011;69633;47.066;15.450;2023-06-26T03:09:20;15.98;;;8.00;;
80320;SDS011;69633;47.066;15.450;2023-06-26T03:11:46;15.07;;;8.52;;
80320;SDS011;69633;47.066;15.450;2023-06-26T03:14:12;14.02;;;8.32;;
80320;SDS011;69633;47.066;15.450;2023-06-26T03:16:40;15.55;;;8.65;;
80320;SDS011;69633;47.066;15.450;2023-06-26T03:19:06;17.65;;;9.55;;
80320;SDS011;69633;47.066;15.450;2023-06-26T03:21:32;16.30;;;8.60;;
80320;SDS011;69633;47.066;15.450;2023-06-26T03:24:00;13.52;;;7.63;;
80320;SDS011;69633;47.066;15.450;2023-06-26T03:26:25;15.55;;;8.63;;
80320;SDS011;69633;47.066;15.450;2023-06-26T03:28:54;16.95;;;9.18;;
80320;SDS011;69633;47.066;15.450;2023-06-26T03:31:21;12.88;;;7.97;;
80320;SDS011;69633;47.066;15.450;2023-06-26T03:33:48;14.25;;;8.25;;
80320;SDS011;69633;47.066;15.450;2023-06-26T03:36:13;15.18;;;7.97;;
80320;SDS011;69633;47.066;15.450;2023-06-26T03:38:40;17.38;;;9.02;;
80320;SDS011;69633;47.066;15.450;2023-06-26T03:41:07;14.85;;;8.07;;
80320;SDS011;69633;47.066;15.450;2023-06-26T03:43:33;17.77;;;8.05;;
80320;SDS011;69633;47.066;15.450;2023-06-26T03:45:58;16.75;;;8.68;;
80320;SDS011;69633;47.066;15.450;2023-06-26T03:48:24;14.68;;;8.80;;
80320;SDS011;69633;47.066;15.450;2023-06-26T03:50:57;15.93;;;8.73;;
80320;SDS011;69633;47.066;15.450;2023-06-26T03:53:27;15.70;;;7.53;;
80320;SDS011;69633;47.066;15.450;2023-06-26T03:55:55;17.35;;;9.15;;
80320;SDS011;69633;47.066;15.450;2023-06-26T03:58:22;13.40;;;8.15;;
80320;SDS011;69633;47.066;15.450;2023-06-26T04:00:48;14.55;;;7.80;;
80320;SDS011;69633;47.066;15.450;2023-06-26T04:03:15;17.05;;;9.43;;
80320;SDS011;69633;47.066;15.450;2023-06-26T04:05:41;16.83;;;8.73;;
80320;SDS011;69633;47.066;15.450;2023-06-26T04:08:17;12.70;;;7.70;;
80320;SDS011;69633;47.066;15.450;2023-06-26T04:10:45;15.88;;;9.32;;
80320;SDS011;69633;47.066;15.450;2023-06-26T04:13:14;16.23;;;8.63;;
80320;SDS011;69633;47.066;15.450;2023-06-26T04:15:41;16.30;;;8.45;;
80320;SDS011;69633;47.066;15.450;2023-06-26T04:18:07;14.02;;;8.30;;
80320;SDS011;69633;47.066;15.450;2023-06-26T04:20:37;16.35;;;9.00;;
80320;SDS011;69633;47.066;15.450;2023-06-26T04:23:06;16.10;;;8.45;;
80320;SDS011;69633;47.066;15.450;2023-06-26T04:25:35;14.50;;;8.52;;
80320;SDS011;69633;47.066;15.450;2023-06-26T04:28:03;17.00;;;8.63;;
80320;SDS011;69633;47.066;15.450;2023-06-26T04:30:29;14.63;;;8.35;;
80320;SDS011;69633;47.066;15.450;2023-06-26T04:32:56;15.15;;;8.32;;
80320;SDS011;69633;47.066;15.450;2023-06-26T04:37:50;11.73;;;7.43;;
80320;SDS011;69633;47.066;15.450;2023-06-26T04:40:17;15.20;;;8.05;;
80320;SDS011;69633;47.066;15.450;2023-06-26T04:42:43;14.85;;;8.25;;
80320;SDS011;69633;47.066;15.450;2023-06-26T04:45:11;14.02;;;8.40;;
80320;SDS011;69633;47.066;15.450;2023-06-26T04:47:38;14.70;;;8.30;;
80320;SDS011;69633;47.066;15.450;2023-06-26T04:50:06;15.30;;;7.70;;
80320;SDS011;69633;47.066;15.450;2023-06-26T04:52:33;13.77;;;7.53;;
80320;SDS011;69633;47.066;15.450;2023-06-26T04:55:00;14.63;;;8.02;;
80320;SDS011;69633;47.066;15.450;2023-06-26T04:57:25;13.43;;;8.10;;
80320;SDS011;69633;47.066;15.450;2023-06-26T04:59:52;16.20;;;8.20;;
80320;SDS011;69633;47.066;15.450;2023-06-26T05:02:18;13.93;;;8.13;;
80320;SDS011;69633;47.066;15.450;2023-06-26T05:04:46;14.00;;;7.75;;
80320;SDS011;69633;47.066;15.450;2023-06-26T05:07:14;14.48;;;8.10;;
80320;SDS011;69633;47.066;15.450;2023-06-26T05:09:41;12.95;;;7.47;;
80320;SDS011;69633;47.066;15.450;2023-06-26T05:12:09;14.82;;;7.75;;
80320;SDS011;69633;47.066;15.450;2023-06-26T05:14:36;16.30;;;8.68;;
80320;SDS011;69633;47.066;15.450;2023-06-26T05:17:03;14.63;;;8.23;;
80320;SDS011;69633;47.066;15.450;2023-06-26T05:19:29;15.32;;;8.18;;
80320;SDS011;69633;47.066;15.450;2023-06-26T05:21:56;13.82;;;8.27;;
80320;SDS011;69633;47.066;15.450;2023-06-26T05:24:22;14.52;;;8.32;;
80320;SDS011;69633;47.066;15.450;2023-06-26T05:26:50;16.38;;;8.60;;
80320;SDS011;69633;47.066;15.450;2023-06-26T05:29:16;16.15;;;7.50;;
80320;SDS011;69633;47.066;15.450;2023-06-26T05:31:44;14.55;;;8.48;;
80320;SDS011;69633;47.066;15.450;2023-06-26T05:34:13;13.43;;;7.90;;
80320;SDS011;69633;47.066;15.450;2023-06-26T05:36:42;17.35;;;8.52;;
80320;SDS011;69633;47.066;15.450;2023-06-26T05:39:09;13.82;;;7.30;;
80320;SDS011;69633;47.066;15.450;2023-06-26T05:41:35;13.55;;;7.97;;
80320;SDS011;69633;47.066;15.450;2023-06-26T05:44:02;13.93;;;8.10;;
80320;SDS011;69633;47.066;15.450;2023-06-26T05:46:28;13.27;;;8.05;;
80320;SDS011;69633;47.066;15.450;2023-06-26T05:48:54;15.80;;;8.05;;
80320;SDS011;69633;47.066;15.450;2023-06-26T05:51:21;16.35;;;7.72;;
80320;SDS011;69633;47.066;15.450;2023-06-26T05:53:49;16.63;;;8.23;;
80320;SDS011;69633;47.066;15.450;2023-06-26T05:56:17;16.30;;;8.60;;
80320;SDS011;69633;47.066;15.450;2023-06-26T05:58:45;16.10;;;8.00;;
80320;SDS011;69633;47.066;15.450;2023-06-26T06:01:13;16.45;;;8.05;;
80320;SDS011;69633;47.066;15.450;2023-06-26T06:03:41;14.50;;;8.65;;
80320;SDS011;69633;47.066;15.450;2023-06-26T06:06:07;15.90;;;8.52;;
80320;SDS011;69633;47.066;15.450;2023-06-26T06:08:35;16.75;;;7.65;;
80320;SDS011;69633;47.066;15.450;2023-06-26T06:11:02;14.68;;;8.80;;
80320;SDS011;69633;47.066;15.450;2023-06-26T06:13:27;14.13;;;8.00;;
80320;SDS011;69633;47.066;15.450;2023-06-26T06:15:54;13.52;;;7.65;;
80320;SDS011;69633;47.066;15.450;2023-06-26T06:18:23;13.93;;;7.78;;
80320;SDS011;69633;47.066;15.450;2023-06-26T06:20:49;14.88;;;7.63;;
80320;SDS011;69633;47.066;15.450;2023-06-26T06:23:15;12.68;;;7.60;;
80320;SDS011;69633;47.066;15.450;2023-06-26T06:25:42;11.45;;;6.97;;
80320;SDS011;69633;47.066;15.450;2023-06-26T06:28:07;12.32;;;7.45;;
80320;SDS011;69633;47.066;15.450;2023-06-26T06:30:36;13.38;;;7.60;;
80320;SDS011;69633;47.066;15.450;2023-06-26T06:33:02;20.02;;;7.78;;
80320;SDS011;69633;47.066;15.450;2023-06-26T06:35:29;14.70;;;8.10;;
80320;SDS011;69633;47.066;15.450;2023-06-26T06:38:07;14.73;;;8.23;;
80320;SDS011;69633;47.066;15.450;2023-06-26T06:40:34;12.18;;;8.00;;
80320;SDS011;69633;47.066;15.450;2023-06-26T06:42:59;16.60;;;7.80;;
80320;SDS011;69633;47.066;15.450;2023-06-26T06:45:26;13.45;;;7.82;;
80320;SDS011;69633;47.066;15.450;2023-06-26T06:47:52;14.30;;;7.38;;
80320;SDS011;69633;47.066;15.450;2023-06-26T06:50:17;12.98;;;7.85;;
80320;SDS011;69633;47.066;15.450;2023-06-26T06:52:45;11.45;;;7.57;;
80320;SDS011;69633;47.066;15.450;2023-06-26T06:55:12;17.23;;;8.27;;
80320;SDS011;69633;47.066;15.450;2023-06-26T06:57:39;13.77;;;7.68;;
80320;SDS011;69633;47.066;15.450;2023-06-26T07:00:10;13.02;;;7.55;;
80320;SDS011;69633;47.066;15.450;2023-06-26T07:02:39;12.73;;;7.60;;
80320;SDS011;69633;47.066;15.450;2023-06-26T07:05:09;11.25;;;7.20;;
80320;SDS011;69633;47.066;15.450;2023-06-26T07:07:37;14.63;;;7.00;;
80320;SDS011;69633;47.066;15.450;2023-06-26T07:10:08;13.57;;;7.72;;
80320;SDS011;69633;47.066;15.450;2023-06-26T07:12:35;11.63;;;7.85;;
80320;SDS011;69633;47.066;15.450;2023-06-26T07:15:02;12.48;;;7.68;;
80320;SDS011;69633;47.066;15.450;2023-06-26T07:17:31;12.60;;;7.10;;
80320;SDS011;69633;47.066;15.450;2023-06-26T07:20:02;10.55;;;6.78;;
80320;SDS011;69633;47.066;15.450;2023-06-26T07:22:33;14.10;;;8.55;;
80320;SDS011;69633;47.066;15.450;2023-06-26T07:25:01;17.25;;;7.53;;
80320;SDS011;69633;47.066;15.450;2023-06-26T07:27:30;18.88;;;8.95;;
80320;SDS011;69633;47.066;15.450;2023-06-26T07:29:56;12.90;;;7.63;;
80320;SDS011;69633;47.066;15.450;2023-06-26T07:32:21;17.40;;;8.73;;
80320;SDS011;69633;47.066;15.450;2023-06-26T07:34:48;12.80;;;7.00;;
80320;SDS011;69633;47.066;15.450;2023-06-26T07:37:14;12.07;;;8.02;;
80320;SDS011;69633;47.066;15.450;2023-06-26T07:39:41;13.15;;;7.85;;
80320;SDS011;69633;47.066;15.450;2023-06-26T07:42:09;15.05;;;6.85;;
80320;SDS011;69633;47.066;15.450;2023-06-26T07:44:35;9.93;;;6.32;;
80320;SDS011;69633;47.066;15.450;2023-06-26T07:47:02;9.05;;;6.68;;
80320;SDS011;69633;47.066;15.450;2023-06-26T07:49:30;10.32;;;6.88;;
80320;SDS011;69633;47.066;15.450;2023-06-26T07:51:57;10.93;;;7.00;;
80320;SDS011;69633;47.066;15.450;2023-06-26T07:59:39;11.85;;;6.80;;
80320;SDS011;69633;47.066;15.450;2023-06-26T08:02:05;10.48;;;6.60;;
80320;SDS011;69633;47.066;15.450;2023-06-26T08:04:32;14.68;;;6.95;;
80320;SDS011;69633;47.066;15.450;2023-06-26T08:07:00;10.15;;;6.47;;
80320;SDS011;69633;47.066;15.450;2023-06-26T08:09:28;11.68;;;7.05;;
80320;SDS011;69633;47.066;15.450;2023-06-26T08:11:54;10.70;;;6.80;;
80320;SDS011;69633;47.066;15.450;2023-06-26T08:14:22;9.38;;;6.20;;
80320;SDS011;69633;47.066;15.450;2023-06-26T08:16:49;10.25;;;6.55;;
80320;SDS011;69633;47.066;15.450;2023-06-26T08:19:20;10.73;;;6.60;;
80320;SDS011;69633;47.066;15.450;2023-06-26T08:21:45;11.02;;;7.13;;
80320;SDS011;69633;47.066;15.450;2023-06-26T08:24:14;10.02;;;6.30;;
80320;SDS011;69633;47.066;15.450;2023-06-26T08:26:49;9.75;;;6.60;;
80320;SDS011;69633;47.066;15.450;2023-06-26T08:29:15;12.07;;;6.60;;
80320;SDS011;69633;47.066;15.450;2023-06-26T08:31:42;9.95;;;6.28;;
80320;SDS011;69633;47.066;15.450;2023-06-26T08:34:09;8.70;;;6.22;;
80320;SDS011;69633;47.066;15.450;2023-06-26T08:36:35;9.73;;;6.55;;
80320;SDS011;69633;47.066;15.450;2023-06-26T08:39:03;11.15;;;6.97;;
80320;SDS011;69633;47.066;15.450;2023-06-26T08:41:31;13.98;;;6.78;;
80320;SDS011;69633;47.066;15.450;2023-06-26T08:43:58;11.20;;;6.25;;
80320;SDS011;69633;47.066;15.450;2023-06-26T08:46:24;9.10;;;6.70;;
80320;SDS011;69633;47.066;15.450;2023-06-26T08:48:54;11.38;;;6.50;;
80320;SDS011;69633;47.066;15.450;2023-06-26T08:51:25;11.70;;;7.05;;
80320;SDS011;69633;47.066;15.450;2023-06-26T08:56:42;10.02;;;7.35;;
80320;SDS011;69633;47.066;15.450;2023-06-26T08:59:16;13.00;;;7.25;;
80320;SDS011;69633;47.066;15.450;2023-06-26T09:01:43;10.77;;;6.78;;
80320;SDS011;69633;47.066;15.450;2023-06-26T09:04:10;10.95;;;6.93;;
80320;SDS011;69633;47.066;15.450;2023-06-26T09:06:37;9.32;;;6.32;;
80320;SDS011;69633;47.066;15.450;2023-06-26T09:09:06;11.45;;;6.82;;
80320;SDS011;69633;47.066;15.450;2023-06-26T09:11:34;11.48;;;6.72;;
80320;SDS011;69633;47.066;15.450;2023-06-26T09:14:01;11.68;;;6.97;;
80320;SDS011;69633;47.066;15.450;2023-06-26T09:16:31;10.82;;;6.43;;
80320;SDS011;69633;47.066;15.450;2023-06-26T09:18:58;11.88;;;6.75;;
80320;SDS011;69633;47.066;15.450;2023-06-26T09:21:25;11.45;;;6.15;;
80320;SDS011;69633;47.066;15.450;2023-06-26T09:23:52;10.43;;;6.55;;
80320;SDS011;69633;47.066;15.450;2023-06-26T09:26:19;12.65;;;6.32;;
80320;SDS011;69633;47.066;15.450;2023-06-26T09:28:48;8.75;;;6.13;;
80320;SDS011;69633;47.066;15.450;2023-06-26T09:31:19;9.10;;;6.68;;
80320;SDS011;69633;47.066;15.450;2023-06-26T09:33:46;9.20;;;5.63;;
80320;SDS011;69633;47.066;15.450;2023-06-26T09:36:21;11.05;;;6.78;;
80320;SDS011;69633;47.066;15.450;2023-06-26T09:38:52;9.15;;;5.57;;
80320;SDS011;69633;47.066;15.450;2023-06-26T09:41:19;9.45;;;6.85;;
80320;SDS011;69633;47.066;15.450;2023-06-26T09:43:50;10.85;;;6.68;;
80320;SDS011;69633;47.066;15.450;2023-06-26T09:46:27;9.35;;;6.03;;
80320;SDS011;69633;47.066;15.450;2023-06-26T09:49:00;9.48;;;4.85;;
80320;SDS011;69633;47.066;15.450;2023-06-26T09:51:29;7.93;;;5.30;;
80320;SDS011;69633;47.066;15.450;2023-06-26T09:54:00;9.68;;;6.53;;
80320;SDS011;69633;47.066;15.450;2023-06-26T09:56:29;7.35;;;5.03;;
80320;SDS011;69633;47.066;15.450;2023-06-26T09:58:57;9.50;;;5.38;;
80320;SDS011;69633;47.066;15.450;2023-06-26T10:01:28;7.57;;;4.55;;
80320;SDS011;69633;47.066;15.450;2023-06-26T10:03:55;7.00;;;4.20;;
80320;SDS011;69633;47.066;15.450;2023-06-26T10:06:45;5.30;;;3.75;;
80320;SDS011;69633;47.066;15.450;2023-06-26T10:09:16;9.88;;;6.07;;
80320;SDS011;69633;47.066;15.450;2023-06-26T10:14:35;9.02;;;6.43;;
80320;SDS011;69633;47.066;15.450;2023-06-26T10:17:08;9.50;;;6.60;;
80320;SDS011;69633;47.066;15.450;2023-06-26T10:19:37;10.25;;;6.60;;
80320;SDS011;69633;47.066;15.450;2023-06-26T10:22:06;13.70;;;6.82;;
80320;SDS011;69633;47.066;15.450;2023-06-26T10:24:39;9.40;;;6.35;;
80320;SDS011;69633;47.066;15.450;2023-06-26T10:27:15;10.07;;;6.30;;
80320;SDS011;69633;47.066;15.450;2023-06-26T10:29:44;10.40;;;6.13;;
80320;SDS011;69633;47.066;15.450;2023-06-26T10:32:16;10.13;;;6.22;;
80320;SDS011;69633;47.066;15.450;2023-06-26T10:34:45;12.25;;;6.20;;
80320;SDS011;69633;47.066;15.450;2023-06-26T10:37:13;8.63;;;6.35;;
80320;SDS011;69633;47.066;15.450;2023-06-26T10:42:36;9.57;;;6.18;;
80320;SDS011;69633;47.066;15.450;2023-06-26T10:45:11;8.68;;;5.53;;
80320;SDS011;69633;47.066;15.450;2023-06-26T10:47:41;8.52;;;5.55;;
80320;SDS011;69633;47.066;15.450;2023-06-26T10:56:04;9.50;;;5.97;;
80320;SDS011;69633;47.066;15.450;2023-06-26T11:01:23;9.13;;;5.30;;
80320;SDS011;69633;47.066;15.450;2023-06-26T11:06:37;9.05;;;5.53;;
80320;SDS011;69633;47.066;15.450;2023-06-26T11:09:09;9.98;;;5.88;;
80320;SDS011;69633;47.066;15.450;2023-06-26T11:14:31;8.15;;;5.97;;
80320;SDS011;69633;47.066;15.450;2023-06-26T11:16:58;9.45;;;5.95;;
80320;SDS011;69633;47.066;15.450;2023-06-26T11:19:28;9.80;;;5.80;;
80320;SDS011;69633;47.066;15.450;2023-06-26T11:21:59;14.20;;;5.80;;
80320;SDS011;69633;47.066;15.450;2023-06-26T11:24:27;9.25;;;5.65;;
80320;SDS011;69633;47.066;15.450;2023-06-26T11:26:59;9.52;;;6.40;;
80320;SDS011;69633;47.066;15.450;2023-06-26T11:29:26;8.07;;;5.65;;
80320;SDS011;69633;47.066;15.450;2023-06-26T11:31:58;8.45;;;5.88;;
80320;SDS011;69633;47.066;15.450;2023-06-26T11:34:25;9.20;;;5.43;;
80320;SDS011;69633;47.066;15.450;2023-06-26T11:36:56;10.93;;;5.70;;
80320;SDS011;69633;47.066;15.450;2023-06-26T11:39:22;8.73;;;5.78;;
80320;SDS011;69633;47.066;15.450;2023-06-26T11:41:49;9.55;;;5.75;;
80320;SDS011;69633;47.066;15.450;2023-06-26T11:44:16;7.20;;;5.40;;
80320;SDS011;69633;47.066;15.450;2023-06-26T11:46:46;9.18;;;6.38;;
80320;SDS011;69633;47.066;15.450;2023-06-26T11:49:17;10.98;;;6.45;;
80320;SDS011;69633;47.066;15.450;2023-06-26T11:51:43;8.85;;;5.43;;
80320;SDS011;69633;47.066;15.450;2023-06-26T11:54:12;8.50;;;6.75;;
80320;SDS011;69633;47.066;15.450;2023-06-26T11:56:52;7.80;;;5.50;;
80320;SDS011;69633;47.066;15.450;2023-06-26T11:59:24;8.95;;;5.82;;
80320;SDS011;69633;47.066;15.450;2023-06-26T12:01:56;9.52;;;6.05;;
80320;SDS011;69633;47.066;15.450;2023-06-26T12:04:23;8.65;;;6.10;;
80320;SDS011;69633;47.066;15.450;2023-06-26T12:06:51;7.95;;;6.05;;
80320;SDS011;69633;47.066;15.450;2023-06-26T12:09:23;9.43;;;6.68;;
80320;SDS011;69633;47.066;15.450;2023-06-26T12:11:53;8.85;;;6.15;;
80320;SDS011;69633;47.066;15.450;2023-06-26T12:14:23;8.98;;;6.45;;
80320;SDS011;69633;47.066;15.450;2023-06-26T12:17:04;8.65;;;5.55;;
80320;SDS011;69633;47.066;15.450;2023-06-26T12:19:33;8.05;;;5.72;;
80320;SDS011;69633;47.066;15.450;2023-06-26T12:22:05;8.98;;;6.13;;
80320;SDS011;69633;47.066;15.450;2023-06-26T12:24:33;9.27;;;5.53;;
80320;SDS011;69633;47.066;15.450;2023-06-26T12:27:07;7.68;;;5.40;;
80320;SDS011;69633;47.066;15.450;2023-06-26T12:29:40;12.00;;;5.90;;
80320;SDS011;69633;47.066;15.450;2023-06-26T12:32:14;9.77;;;6.57;;
80320;SDS011;69633;47.066;15.450;2023-06-26T12:34:46;9.75;;;6.03;;
80320;SDS011;69633;47.066;15.450;2023-06-26T12:37:16;8.57;;;5.63;;
80320;SDS011;69633;47.066;15.450;2023-06-26T12:42:33;10.35;;;6.22;;
80320;SDS011;69633;47.066;15.450;2023-06-26T12:45:09;9.07;;;6.10;;
80320;SDS011;69633;47.066;15.450;2023-06-26T12:47:37;9.23;;;6.20;;
80320;SDS011;69633;47.066;15.450;2023-06-26T12:50:05;8.60;;;5.85;;
80320;SDS011;69633;47.066;15.450;2023-06-26T12:52:34;7.80;;;6.03;;
80320;SDS011;69633;47.066;15.450;2023-06-26T12:55:00;8.40;;;6.13;;
80320;SDS011;69633;47.066;15.450;2023-06-26T12:57:27;8.68;;;6.28;;
80320;SDS011;69633;47.066;15.450;2023-06-26T12:59:54;9.48;;;6.22;;
80320;SDS011;69633;47.066;15.450;2023-06-26T13:02:21;7.45;;;5.28;;
80320;SDS011;69633;47.066;15.450;2023-06-26T13:04:48;7.38;;;5.70;;
80320;SDS011;69633;47.066;15.450;2023-06-26T13:07:15;7.43;;;6.00;;
80320;SDS011;69633;47.066;15.450;2023-06-26T13:09:41;6.95;;;5.22;;
80320;SDS011;69633;47.066;15.450;2023-06-26T13:12:08;8.13;;;5.68;;
80320;SDS011;69633;47.066;15.450;2023-06-26T13:14:34;9.18;;;6.03;;
80320;SDS011;69633;47.066;15.450;2023-06-26T13:17:00;9.25;;;6.63;;
80320;SDS011;69633;47.066;15.450;2023-06-26T13:19:27;12.68;;;7.85;;
80320;SDS011;69633;47.066;15.450;2023-06-26T13:21:54;9.98;;;7.05;;
80320;SDS011;69633;47.066;15.450;2023-06-26T13:24:20;8.38;;;5.82;;
80320;SDS011;69633;47.066;15.450;2023-06-26T13:26:46;10.55;;;6.90;;
80320;SDS011;69633;47.066;15.450;2023-06-26T13:29:13;7.07;;;5.90;;
80320;SDS011;69633;47.066;15.450;2023-06-26T13:31:40;8.38;;;6.30;;
80320;SDS011;69633;47.066;15.450;2023-06-26T13:34:07;8.70;;;5.82;;
80320;SDS011;69633;47.066;15.450;2023-06-26T13:36:34;11.15;;;7.57;;
80320;SDS011;69633;47.066;15.450;2023-06-26T13:39:02;7.10;;;6.20;;
80320;SDS011;69633;47.066;15.450;2023-06-26T13:41:28;9.15;;;6.75;;
80320;SDS011;69633;47.066;15.450;2023-06-26T13:43:55;8.00;;;6.25;;
80320;SDS011;69633;47.066;15.450;2023-06-26T13:46:21;8.32;;;6.15;;
80320;SDS011;69633;47.066;15.450;2023-06-26T13:48:48;10.25;;;6.72;;
80320;SDS011;69633;47.066;15.450;2023-06-26T13:51:14;8.48;;;6.22;;
80320;SDS011;69633;47.066;15.450;2023-06-26T13:53:41;8.25;;;5.95;;
80320;SDS011;69633;47.066;15.450;2023-06-26T13:56:08;8.95;;;6.00;;
80320;SDS011;69633;47.066;15.450;2023-06-26T13:58:35;9.35;;;6.20;;
80320;SDS011;69633;47.066;15.450;2023-06-26T14:01:02;7.18;;;6.47;;
80320;SDS011;69633;47.066;15.450;2023-06-26T14:03:30;9.30;;;5.70;;
80320;SDS011;69633;47.066;15.450;2023-06-26T14:05:57;10.57;;;7.55;;
80320;SDS011;69633;47.066;15.450;2023-06-26T14:08:22;7.25;;;6.38;;
80320;SDS011;69633;47.066;15.450;2023-06-26T14:10:49;9.10;;;6.05;;
80320;SDS011;69633;47.066;15.450;2023-06-26T14:13:17;8.90;;;6.60;;
80320;SDS011;69633;47.066;15.450;2023-06-26T14:15:43;7.75;;;6.05;;
80320;SDS011;69633;47.066;15.450;2023-06-26T14:18:10;11.13;;;6.65;;
80320;SDS011;69633;47.066;15.450;2023-06-26T14:20:39;9.63;;;6.45;;
80320;SDS011;69633;47.066;15.450;2023-06-26T14:23:06;9.57;;;6.32;;
80320;SDS011;69633;47.066;15.450;2023-06-26T14:25:33;8.52;;;6.35;;
80320;SDS011;69633;47.066;15.450;2023-06-26T14:28:00;7.78;;;6.30;;
80320;SDS011;69633;47.066;15.450;2023-06-26T14:30:27;6.90;;;5.57;;
80320;SDS011;69633;47.066;15.450;2023-06-26T14:32:54;8.43;;;6.10;;
80320;SDS011;69633;47.066;15.450;2023-06-26T14:35:21;10.65;;;6.60;;
80320;SDS011;69633;47.066;15.450;2023-06-26T14:37:49;11.10;;;6.57;;
80320;SDS011;69633;47.066;15.450;2023-06-26T14:40:16;11.18;;;6.65;;
80320;SDS011;69633;47.066;15.450;2023-06-26T14:42:42;8.75;;;6.13;;
80320;SDS011;69633;47.066;15.450;2023-06-26T14:45:09;7.97;;;5.75;;
80320;SDS011;69633;47.066;15.450;2023-06-26T14:47:36;7.82;;;6.00;;
80320;SDS011;69633;47.066;15.450;2023-06-26T14:50:03;11.82;;;7.10;;
80320;SDS011;69633;47.066;15.450;2023-06-26T14:52:31;8.38;;;6.05;;
80320;SDS011;69633;47.066;15.450;2023-06-26T14:54:57;8.93;;;6.10;;
80320;SDS011;69633;47.066;15.450;2023-06-26T14:57:23;9.30;;;5.80;;
80320;SDS011;69633;47.066;15.450;2023-06-26T14:59:50;7.90;;;5.90;;
80320;SDS011;69633;47.066;15.450;2023-06-26T15:02:15;8.35;;;6.30;;
80320;SDS011;69633;47.066;15.450;2023-06-26T15:04:43;10.70;;;6.05;;
80320;SDS011;69633;47.066;15.450;2023-06-26T15:07:10;8.30;;;5.75;;
80320;SDS011;69633;47.066;15.450;2023-06-26T15:09:39;7.78;;;5.95;;
80320;SDS011;69633;47.066;15.450;2023-06-26T15:12:06;9.73;;;6.40;;
80320;SDS011;69633;47.066;15.450;2023-06-26T15:14:32;10.02;;;6.25;;
80320;SDS011;69633;47.066;15.450;2023-06-26T15:16:59;9.38;;;6.03;;
80320;SDS011;69633;47.066;15.450;2023-06-26T15:19:25;8.45;;;5.95;;
80320;SDS011;69633;47.066;15.450;2023-06-26T15:21:52;8.32;;;5.70;;